sensor_id;sensor_type;location;lat;lon;timestamp;pressure;altitude;pressure_sealevel;temperature;humidity
12073;BME280;6098;49.004;8.372;2023-04-21T00:01:03;100022.11;;;7.69;86.10
12073;BME280;6098;49.004;8.372;2023-04-21T00:15:54;100011.25;;;7.65;86.18
12073;BME280;6098;49.004;8.372;2023-04-21T00:30:45;100014.39;;;7.63;85.78
12073;BME280;6098;49.004;8.372;2023-04-21T00:45:37;99995.72;;;7.57;86.03
12073;BME280;6098;49.004;8.372;2023-04-21T01:00:28;99985.63;;;7.55;86.06
12073;BME280;6098;49.004;8.372;2023-04-21T01:15:19;99982.93;;;7.44;86.16
12073;BME280;6098;49.004;8.372;2023-04-21T01:30:19;99973.05;;;7.23;87.10
12073;BME280;6098;49.004;8.372;2023-04-21T01:45:13;99977.03;;;7.10;87.53
12073;BME280;6098;49.004;8.372;2023-04-21T02:00:04;99987.88;;;6.99;87.63
12073;BME280;6098;49.004;8.372;2023-04-21T02:14:55;99997.64;;;6.96;87.47
12073;BME280;6098;49.004;8.372;2023-04-21T02:29:46;99997.71;;;6.93;86.65
12073;BME280;6098;49.004;8.372;2023-04-21T02:44:38;100005.51;;;6.83;86.65
12073;BME280;6098;49.004;8.372;2023-04-21T02:59:29;100003.55;;;6.74;86.62
12073;BME280;6098;49.004;8.372;2023-04-21T03:14:19;99994.47;;;6.24;88.13
12073;BME280;6098;49.004;8.372;2023-04-21T03:29:09;99985.78;;;6.21;87.92
12073;BME280;6098;49.004;8.372;2023-04-21T03:43:59;99984.39;;;6.08;87.67
12073;BME280;6098;49.004;8.372;2023-04-21T03:58:50;99977.47;;;5.70;88.79
12073;BME280;6098;49.004;8.372;2023-04-21T04:13:42;99955.27;;;5.65;89.28
12073;BME280;6098;49.004;8.372;2023-04-21T04:28:36;99987.00;;;5.58;89.41
12073;BME280;6098;49.004;8.372;2023-04-21T04:43:28;99969.23;;;5.50;88.81
12073;BME280;6098;49.004;8.372;2023-04-21T04:58:19;99979.41;;;5.45;88.74
12073;BME280;6098;49.004;8.372;2023-04-21T05:13:11;99997.06;;;5.40;88.95
12073;BME280;6098;49.004;8.372;2023-04-21T05:28:02;100019.06;;;5.36;89.19
12073;BME280;6098;49.004;8.372;2023-04-21T05:42:57;100019.14;;;5.33;88.93
12073;BME280;6098;49.004;8.372;2023-04-21T05:57:47;100034.21;;;5.43;88.77
12073;BME280;6098;49.004;8.372;2023-04-21T06:12:40;100039.84;;;5.82;88.11
12073;BME280;6098;49.004;8.372;2023-04-21T06:27:32;100040.78;;;5.98;87.60
12073;BME280;6098;49.004;8.372;2023-04-21T06:42:23;100034.38;;;6.56;86.38
12073;BME280;6098;49.004;8.372;2023-04-21T06:57:17;100015.66;;;6.95;83.52
12073;BME280;6098;49.004;8.372;2023-04-21T07:12:08;100009.00;;;7.27;83.67
12073;BME280;6098;49.004;8.372;2023-04-21T07:27:02;99993.33;;;7.88;84.34
12073;BME280;6098;49.004;8.372;2023-04-21T07:41:54;99980.55;;;9.09;78.91
12073;BME280;6098;49.004;8.372;2023-04-21T07:56:49;99978.57;;;10.09;74.91
12073;BME280;6098;49.004;8.372;2023-04-21T08:11:44;99973.86;;;10.93;70.34
12073;BME280;6098;49.004;8.372;2023-04-21T08:26:37;99965.14;;;11.28;67.78
12073;BME280;6098;49.004;8.372;2023-04-21T08:41:30;99947.34;;;11.75;65.83
12073;BME280;6098;49.004;8.372;2023-04-21T08:56:24;99945.39;;;12.13;65.54
12073;BME280;6098;49.004;8.372;2023-04-21T09:11:23;99926.81;;;12.62;63.37
12073;BME280;6098;49.004;8.372;2023-04-21T09:26:18;99913.64;;;12.99;62.70
12073;BME280;6098;49.004;8.372;2023-04-21T09:41:09;99895.80;;;13.47;63.14
12073;BME280;6098;49.004;8.372;2023-04-21T09:56:03;99883.92;;;13.97;61.50
12073;BME280;6098;49.004;8.372;2023-04-21T10:10:58;99882.14;;;14.48;60.31
12073;BME280;6098;49.004;8.372;2023-04-21T10:25:50;99857.16;;;14.90;59.25
12073;BME280;6098;49.004;8.372;2023-04-21T10:40:42;99850.13;;;15.42;57.19
12073;BME280;6098;49.004;8.372;2023-04-21T10:55:35;99822.13;;;15.87;55.76
12073;BME280;6098;49.004;8.372;2023-04-21T11:10:27;99800.20;;;16.44;55.11
12073;BME280;6098;49.004;8.372;2023-04-21T11:25:20;99793.87;;;17.06;53.36
12073;BME280;6098;49.004;8.372;2023-04-21T11:40:14;99777.69;;;17.54;51.85
12073;BME280;6098;49.004;8.372;2023-04-21T11:55:13;99778.75;;;17.98;51.08
12073;BME280;6098;49.004;8.372;2023-04-21T12:10:12;99755.80;;;18.60;50.64
12073;BME280;6098;49.004;8.372;2023-04-21T12:25:05;99753.09;;;18.82;48.72
12073;BME280;6098;49.004;8.372;2023-04-21T12:40:00;99748.94;;;19.37;49.58
12073;BME280;6098;49.004;8.372;2023-04-21T12:54:52;99736.85;;;19.52;49.02
12073;BME280;6098;49.004;8.372;2023-04-21T13:09:44;99721.75;;;19.76;46.50
12073;BME280;6098;49.004;8.372;2023-04-21T13:24:37;99712.21;;;19.93;46.13
12073;BME280;6098;49.004;8.372;2023-04-21T13:39:30;99702.23;;;20.29;46.30
12073;BME280;6098;49.004;8.372;2023-04-21T13:54:23;99666.20;;;20.60;45.77
12073;BME280;6098;49.004;8.372;2023-04-21T14:09:16;99644.58;;;20.80;45.34
12073;BME280;6098;49.004;8.372;2023-04-21T14:24:09;99624.50;;;21.31;44.85
12073;BME280;6098;49.004;8.372;2023-04-21T14:39:04;99605.02;;;20.52;46.03
12073;BME280;6098;49.004;8.372;2023-04-21T14:53:54;99623.78;;;19.89;48.92
12073;BME280;6098;49.004;8.372;2023-04-21T15:08:55;99623.19;;;19.20;51.07
12073;BME280;6098;49.004;8.372;2023-04-21T15:23:48;99725.95;;;18.26;56.14
12073;BME280;6098;49.004;8.372;2023-04-21T15:38:37;99749.09;;;16.36;61.81
12073;BME280;6098;49.004;8.372;2023-04-21T15:53:42;99647.11;;;15.93;56.94
12073;BME280;6098;49.004;8.372;2023-04-21T16:08:37;99614.20;;;16.57;58.89
12073;BME280;6098;49.004;8.372;2023-04-21T16:23:30;99634.95;;;16.48;64.25
12073;BME280;6098;49.004;8.372;2023-04-21T16:38:20;99662.61;;;16.30;70.40
12073;BME280;6098;49.004;8.372;2023-04-21T16:53:10;99630.36;;;15.96;79.07
12073;BME280;6098;49.004;8.372;2023-04-21T17:08:02;99643.06;;;15.87;82.50
12073;BME280;6098;49.004;8.372;2023-04-21T17:22:54;99636.42;;;15.86;79.47
12073;BME280;6098;49.004;8.372;2023-04-21T17:37:47;99636.22;;;16.01;82.67
12073;BME280;6098;49.004;8.372;2023-04-21T17:52:40;99646.17;;;15.81;84.55
12073;BME280;6098;49.004;8.372;2023-04-21T18:07:32;99658.87;;;15.53;85.36
12073;BME280;6098;49.004;8.372;2023-04-21T18:22:24;99666.41;;;15.28;88.11
12073;BME280;6098;49.004;8.372;2023-04-21T18:37:16;99678.94;;;15.08;85.68
12073;BME280;6098;49.004;8.372;2023-04-21T18:52:16;99684.41;;;14.93;85.16
12073;BME280;6098;49.004;8.372;2023-04-21T19:07:09;99700.44;;;14.79;85.80
12073;BME280;6098;49.004;8.372;2023-04-21T19:22:00;99711.04;;;14.74;83.86
12073;BME280;6098;49.004;8.372;2023-04-21T19:36:53;99700.23;;;14.63;82.05
12073;BME280;6098;49.004;8.372;2023-04-21T19:51:45;99700.48;;;14.59;80.85
12073;BME280;6098;49.004;8.372;2023-04-21T20:06:37;99699.75;;;14.43;86.26
12073;BME280;6098;49.004;8.372;2023-04-21T20:21:29;99709.94;;;14.30;88.77
12073;BME280;6098;49.004;8.372;2023-04-21T20:36:22;99701.49;;;14.23;87.60
12073;BME280;6098;49.004;8.372;2023-04-21T20:51:14;99701.70;;;14.20;84.23
12073;BME280;6098;49.004;8.372;2023-04-21T21:06:07;99712.83;;;14.19;82.50
12073;BME280;6098;49.004;8.372;2023-04-21T21:20:59;99722.98;;;14.14;86.95
12073;BME280;6098;49.004;8.372;2023-04-21T21:35:51;99727.75;;;14.09;82.89
12073;BME280;6098;49.004;8.372;2023-04-21T21:50:58;99725.50;;;14.02;83.89
12073;BME280;6098;49.004;8.372;2023-04-21T22:05:50;99708.32;;;14.00;82.30
12073;BME280;6098;49.004;8.372;2023-04-21T22:20:43;99711.37;;;14.08;81.37
12073;BME280;6098;49.004;8.372;2023-04-21T22:35:35;99715.52;;;13.98;81.47
12073;BME280;6098;49.004;8.372;2023-04-21T22:50:26;99707.33;;;13.94;82.65
12073;BME280;6098;49.004;8.372;2023-04-21T23:05:18;99700.59;;;13.89;82.68
12073;BME280;6098;49.004;8.372;2023-04-21T23:20:10;99696.87;;;13.77;85.64
12073;BME280;6098;49.004;8.372;2023-04-21T23:35:03;99692.41;;;13.57;86.64
12073;BME280;6098;49.004;8.372;2023-04-21T23:49:55;99673.72;;;13.36;87.86
